Terminal Aerodrome Forecast
Issued by NWS

Home | Current Version | Previous Version | Text Only | Print | Product List | Glossary On
Versions: 1 2 3 4 5 6 7 8 9 10 11 12 13 14 15 16 17 18 19 20 21 22
000
FTUS41 KPBZ 302103 AAB
TAFAGC
TAF AMD
KAGC 302103Z 3021/0118 22010KT P6SM VCSH BKN035
      TEMPO 3022/3023 3SM TSRA BKN025CB
     FM010100 23005KT P6SM BKN040
     FM011000 25005KT 5SM BR BKN020
     FM011600 27009KT P6SM BKN035=

USA.gov is the U.S. government's official web portal to all federal, state and local government web resources and services.